Archival Weather

Basrah Intl

Basrah Intl, Iraq (ORMM)

Report from: Wednesday, September 28, 2022 11:00 AM UTC
Current time: Tuesday, July 16, 2024 9:05 AM UTC

Current weather – Weather history – Daily summaries
Weather forecast

Temperature39.0°C (102.2°F)
Heat index35.7°C (96.2°F)
Dew point-6.0°C (21.2°F)
Winds 10 kts (5.1 m/s, 11.5 mph) Northwest (310°)
Clouds Sky clear
Altimeter29.71 in.Hg (1006 mB)
Relative humidity6 %
Density altitude3,014 ft. (919 m)
Remarks Ceiling and visibility OK
No significant changes expected in the next two hours
Flight conditions Visual Meteorological Conditions
Raw dataORMM 281100Z 31010KT CAVOK 39/M06 Q1006 NOSIG
An error has occurred. This application may no longer respond until reloaded. Reload 🗙